createdAt,value
2016-12-04T00:00:35.172Z,0
2016-12-04T00:01:35.808Z,0
2016-12-04T00:02:36.420Z,0
2016-12-04T00:03:37.039Z,0
2016-12-04T00:04:37.660Z,0
2016-12-04T00:05:38.280Z,0
2016-12-04T00:06:38.895Z,0
2016-12-04T00:07:39.526Z,0
2016-12-04T00:08:40.134Z,0
2016-12-04T00:09:40.743Z,0
2016-12-04T00:10:41.351Z,0
2016-12-04T00:11:41.999Z,0
2016-12-04T00:12:42.605Z,0
2016-12-04T00:13:43.227Z,0
2016-12-04T00:14:43.856Z,0
2016-12-04T00:15:44.474Z,0
2016-12-04T00:16:45.105Z,0
2016-12-04T00:17:45.732Z,0
2016-12-04T00:18:46.347Z,0
2016-12-04T00:19:46.973Z,0
2016-12-04T00:20:47.595Z,0
2016-12-04T00:21:48.218Z,0
2016-12-04T00:22:48.825Z,0
2016-12-04T00:23:49.436Z,0
2016-12-04T00:24:50.062Z,0
2016-12-04T00:25:50.680Z,0
2016-12-04T00:26:51.319Z,0
2016-12-04T00:27:51.934Z,0
2016-12-04T00:28:52.543Z,0
2016-12-04T00:29:53.183Z,0
2016-12-04T00:30:53.804Z,0
2016-12-04T00:31:54.422Z,0
2016-12-04T00:32:55.057Z,0
2016-12-04T00:33:55.678Z,0
2016-12-04T00:34:56.353Z,0
2016-12-04T00:35:56.992Z,0
2016-12-04T00:36:57.606Z,0
2016-12-04T00:37:58.205Z,0
2016-12-04T00:38:58.815Z,0
2016-12-04T00:39:59.468Z,0
2016-12-04T00:41:00.083Z,0
2016-12-04T00:42:00.695Z,0
2016-12-04T00:43:01.301Z,0
2016-12-04T00:44:01.906Z,0
2016-12-04T00:45:02.521Z,0
2016-12-04T00:46:03.148Z,0
2016-12-04T00:47:03.780Z,0
2016-12-04T00:48:04.397Z,0
2016-12-04T00:49:05.044Z,0
2016-12-04T00:50:05.648Z,0
2016-12-04T00:51:06.273Z,0
2016-12-04T00:52:06.887Z,0
2016-12-04T00:53:07.524Z,0
2016-12-04T00:54:08.138Z,0
2016-12-04T00:55:08.755Z,0
2016-12-04T00:56:09.384Z,0
2016-12-04T00:57:09.995Z,0
2016-12-04T00:58:10.613Z,0
2016-12-04T00:59:11.240Z,0
2016-12-04T01:00:11.869Z,0
2016-12-04T01:01:12.488Z,0
2016-12-04T01:02:13.104Z,0
2016-12-04T01:03:13.746Z,0
2016-12-04T01:04:14.364Z,0
2016-12-04T01:05:14.976Z,0
2016-12-04T01:06:15.596Z,0
2016-12-04T01:07:16.226Z,0
2016-12-04T01:08:16.845Z,0
2016-12-04T01:09:17.493Z,0
2016-12-04T01:10:18.107Z,0
2016-12-04T01:11:18.722Z,0
2016-12-04T01:12:19.358Z,0
2016-12-04T01:13:19.971Z,0
2016-12-04T01:14:20.585Z,0
2016-12-04T01:15:21.194Z,0
2016-12-04T01:16:21.820Z,0
2016-12-04T01:17:22.435Z,0
2016-12-04T01:18:23.051Z,0
2016-12-04T01:19:23.673Z,0
2016-12-04T01:20:24.282Z,0
2016-12-04T01:21:24.889Z,0
2016-12-04T01:22:25.501Z,0
2016-12-04T01:23:26.114Z,0
2016-12-04T01:24:26.725Z,0
2016-12-04T01:25:27.345Z,0
2016-12-04T01:26:27.953Z,0
2016-12-04T01:27:28.586Z,0
2016-12-04T01:28:29.201Z,0
2016-12-04T01:29:29.807Z,0
2016-12-04T01:30:30.421Z,0
2016-12-04T01:31:31.027Z,0
2016-12-04T01:32:31.637Z,0
2016-12-04T01:33:32.255Z,0
2016-12-04T01:34:32.897Z,0
2016-12-04T01:35:33.508Z,0
2016-12-04T01:36:34.140Z,0
2016-12-04T01:37:34.745Z,0
2016-12-04T01:38:35.366Z,0
2016-12-04T01:39:35.992Z,0
2016-12-04T01:40:36.635Z,0
2016-12-04T01:41:37.241Z,0
2016-12-04T01:42:37.862Z,0
2016-12-04T01:43:38.477Z,0
2016-12-04T01:44:39.095Z,0
2016-12-04T01:45:39.722Z,0
2016-12-04T01:46:40.351Z,0
2016-12-04T01:47:40.975Z,0
2016-12-04T01:48:41.588Z,0
2016-12-04T01:49:42.201Z,0
2016-12-04T01:50:42.821Z,0
2016-12-04T01:51:43.432Z,0
2016-12-04T01:52:44.057Z,0
2016-12-04T01:53:44.684Z,0
2016-12-04T01:54:45.304Z,0
2016-12-04T01:55:45.923Z,0
2016-12-04T01:56:46.546Z,0
2016-12-04T01:57:47.155Z,0
2016-12-04T01:58:47.772Z,0
2016-12-04T01:59:48.381Z,0
2016-12-04T02:00:48.992Z,0
2016-12-04T02:01:49.615Z,0
2016-12-04T02:02:50.229Z,0
2016-12-04T02:03:50.843Z,0
2016-12-04T02:04:51.463Z,0
2016-12-04T02:05:52.081Z,0
2016-12-04T02:06:52.714Z,0
2016-12-04T02:07:53.325Z,0
2016-12-04T02:08:53.946Z,0
2016-12-04T02:09:54.564Z,0
2016-12-04T02:10:55.196Z,0
2016-12-04T02:11:55.885Z,0
2016-12-04T02:12:56.525Z,0
2016-12-04T02:14:03.730Z,0
2016-12-04T02:15:04.361Z,0
2016-12-04T02:16:04.959Z,0
2016-12-04T02:17:05.572Z,0
2016-12-04T02:18:06.181Z,0
2016-12-04T02:19:06.794Z,0
2016-12-04T02:20:07.432Z,0
2016-12-04T02:21:08.065Z,0
2016-12-04T02:22:08.683Z,0
2016-12-04T02:23:09.298Z,0
2016-12-04T02:24:09.924Z,0
2016-12-04T02:25:10.537Z,0
2016-12-04T02:26:11.158Z,0
2016-12-04T02:27:11.786Z,0
2016-12-04T02:28:12.401Z,0
2016-12-04T02:29:13.037Z,0
2016-12-04T02:30:13.662Z,0
2016-12-04T02:31:14.283Z,0
2016-12-04T02:32:14.892Z,0
2016-12-04T02:33:15.507Z,0
2016-12-04T02:34:16.132Z,0
2016-12-04T02:35:16.749Z,0
2016-12-04T02:36:17.370Z,0
2016-12-04T02:37:17.994Z,0
2016-12-04T02:38:18.615Z,0
2016-12-04T02:39:19.234Z,0
2016-12-04T02:40:19.858Z,0
2016-12-04T02:41:20.483Z,0
2016-12-04T02:42:21.097Z,0
2016-12-04T02:43:21.720Z,0
2016-12-04T02:44:22.347Z,0
2016-12-04T02:45:22.986Z,0
2016-12-04T02:46:23.609Z,0
2016-12-04T02:47:24.218Z,0
2016-12-04T02:48:24.848Z,0
2016-12-04T02:49:25.454Z,0
2016-12-04T02:50:26.068Z,0
2016-12-04T02:51:26.687Z,0
2016-12-04T02:52:27.301Z,0
2016-12-04T02:53:27.936Z,0
2016-12-04T02:54:28.551Z,0
2016-12-04T02:55:29.181Z,0
2016-12-04T02:56:29.789Z,0
2016-12-04T02:57:30.412Z,0
2016-12-04T02:58:31.034Z,0
2016-12-04T02:59:31.654Z,0
2016-12-04T03:00:32.276Z,0
2016-12-04T03:01:32.914Z,0
2016-12-04T03:02:33.523Z,0
2016-12-04T03:03:34.132Z,0
2016-12-04T03:04:34.775Z,0
2016-12-04T03:05:35.387Z,0
2016-12-04T03:06:36.004Z,0
2016-12-04T03:07:36.627Z,0
2016-12-04T03:08:37.273Z,0
2016-12-04T03:09:37.894Z,0
2016-12-04T03:10:38.503Z,0
2016-12-04T03:11:39.112Z,0
2016-12-04T03:12:39.748Z,0
2016-12-04T03:13:40.358Z,0
2016-12-04T03:14:40.977Z,0
2016-12-04T03:15:41.597Z,0
2016-12-04T03:16:42.250Z,0
2016-12-04T03:17:42.855Z,0
2016-12-04T03:18:43.474Z,0
2016-12-04T03:19:44.089Z,0
2016-12-04T03:20:44.699Z,0
2016-12-04T03:21:45.319Z,0
2016-12-04T03:22:45.931Z,0
2016-12-04T03:23:46.563Z,0
2016-12-04T03:24:47.186Z,0
2016-12-04T03:25:47.796Z,0
2016-12-04T03:26:48.413Z,0
2016-12-04T03:27:49.035Z,0
2016-12-04T03:28:49.669Z,0
2016-12-04T03:29:50.290Z,0
2016-12-04T03:30:50.914Z,0
2016-12-04T03:31:51.578Z,0
2016-12-04T03:32:52.211Z,0
2016-12-04T03:33:52.825Z,0
2016-12-04T03:34:53.436Z,0
2016-12-04T03:35:54.112Z,0
2016-12-04T03:36:54.741Z,0
2016-12-04T03:37:55.374Z,0
2016-12-04T03:38:55.978Z,0
2016-12-04T03:39:56.607Z,0
2016-12-04T03:40:57.228Z,0
2016-12-04T03:41:57.833Z,0
2016-12-04T03:42:58.444Z,0
2016-12-04T03:43:59.054Z,0
2016-12-04T03:44:59.705Z,0
2016-12-04T03:46:00.331Z,0
2016-12-04T03:47:00.951Z,0
2016-12-04T03:48:01.558Z,0
2016-12-04T03:49:02.195Z,0
2016-12-04T03:50:02.824Z,0
2016-12-04T03:51:03.459Z,0
2016-12-04T03:52:04.072Z,0
2016-12-04T03:53:04.703Z,0
2016-12-04T03:54:05.367Z,0
2016-12-04T03:55:05.977Z,0
2016-12-04T03:56:06.601Z,0
2016-12-04T03:57:07.212Z,0
2016-12-04T03:58:07.835Z,0
2016-12-04T03:59:08.459Z,0
2016-12-04T04:00:09.081Z,0
2016-12-04T04:01:09.695Z,0
2016-12-04T04:02:10.322Z,0
2016-12-04T04:03:10.931Z,0
2016-12-04T04:04:11.559Z,0
2016-12-04T04:05:12.175Z,0
2016-12-04T04:06:12.793Z,0
2016-12-04T04:07:13.413Z,0
2016-12-04T04:08:14.024Z,0
2016-12-04T04:09:14.666Z,0
2016-12-04T04:10:15.279Z,0
2016-12-04T04:11:15.919Z,0
2016-12-04T04:12:16.530Z,0
2016-12-04T04:13:17.162Z,0
2016-12-04T04:14:17.761Z,0
2016-12-04T04:15:18.371Z,0
2016-12-04T04:16:18.982Z,0
2016-12-04T04:17:19.622Z,0
2016-12-04T04:18:20.234Z,0
2016-12-04T04:19:20.853Z,0
2016-12-04T04:20:21.478Z,0
2016-12-04T04:21:22.084Z,0
2016-12-04T04:22:22.750Z,0
2016-12-04T04:23:23.367Z,0
2016-12-04T04:24:23.986Z,0
2016-12-04T04:25:24.618Z,0
2016-12-04T04:26:25.228Z,0
2016-12-04T04:27:25.843Z,0
2016-12-04T04:28:26.480Z,0
2016-12-04T04:29:27.103Z,0
2016-12-04T04:30:27.734Z,0
2016-12-04T04:31:28.355Z,0
2016-12-04T04:32:28.965Z,0
2016-12-04T04:33:29.575Z,0
2016-12-04T04:34:30.196Z,0
2016-12-04T04:35:30.819Z,0
2016-12-04T04:36:31.500Z,0
2016-12-04T04:37:32.070Z,0
2016-12-04T04:38:32.692Z,0
2016-12-04T04:39:33.324Z,0
2016-12-04T04:40:33.934Z,0
2016-12-04T04:41:34.540Z,0
2016-12-04T04:42:35.148Z,0
2016-12-04T04:43:35.860Z,0
2016-12-04T04:44:36.421Z,0
2016-12-04T04:45:37.041Z,0
2016-12-04T04:46:37.683Z,0
2016-12-04T04:47:38.322Z,0
2016-12-04T04:48:38.960Z,0
2016-12-04T04:49:39.569Z,0
2016-12-04T04:50:40.222Z,0
2016-12-04T04:51:40.844Z,0
2016-12-04T04:52:41.454Z,0
2016-12-04T04:53:42.075Z,0
2016-12-04T04:54:42.695Z,0
2016-12-04T04:55:43.309Z,0
2016-12-04T04:56:43.971Z,0
2016-12-04T04:57:44.588Z,0
2016-12-04T04:58:45.246Z,0
2016-12-04T04:59:45.887Z,0
2016-12-04T05:00:46.501Z,0
2016-12-04T05:01:47.124Z,0
2016-12-04T05:02:47.753Z,0
2016-12-04T05:03:48.373Z,0
2016-12-04T05:04:48.985Z,0
2016-12-04T05:05:49.598Z,0
2016-12-04T05:06:50.266Z,0
2016-12-04T05:07:50.878Z,0
2016-12-04T05:08:51.498Z,0
2016-12-04T05:09:52.112Z,0
2016-12-04T05:10:52.724Z,0
2016-12-04T05:11:53.343Z,0
2016-12-04T05:12:53.950Z,0
2016-12-04T05:13:54.560Z,0
2016-12-04T05:14:55.276Z,0
2016-12-04T05:15:55.863Z,0
2016-12-04T05:16:56.505Z,0
2016-12-04T05:17:57.124Z,0
2016-12-04T05:18:57.752Z,0
2016-12-04T05:19:58.359Z,0
2016-12-04T05:20:59.025Z,0
2016-12-04T05:21:59.609Z,0
2016-12-04T05:23:00.230Z,0
2016-12-04T05:24:00.862Z,0
2016-12-04T05:25:01.479Z,0
2016-12-04T05:26:02.100Z,0
2016-12-04T05:27:02.711Z,0
2016-12-04T05:28:03.329Z,0
2016-12-04T05:29:03.961Z,0
2016-12-04T05:30:04.581Z,0
2016-12-04T05:31:05.205Z,0
2016-12-04T05:32:05.820Z,0
2016-12-04T05:33:06.438Z,0
2016-12-04T05:34:07.057Z,0
2016-12-04T05:35:07.677Z,0
2016-12-04T05:36:08.303Z,0
2016-12-04T05:37:08.925Z,0
2016-12-04T05:38:09.554Z,0
2016-12-04T05:39:10.183Z,0
2016-12-04T05:40:10.784Z,0
2016-12-04T05:41:11.417Z,0
2016-12-04T05:42:12.059Z,0
2016-12-04T05:43:12.665Z,0
2016-12-04T05:44:13.295Z,0
2016-12-04T05:45:13.932Z,0
2016-12-04T05:46:14.596Z,0
2016-12-04T05:47:15.197Z,0
2016-12-04T05:48:15.817Z,0
2016-12-04T05:49:16.458Z,0
2016-12-04T05:50:17.065Z,0
2016-12-04T05:51:17.677Z,0
2016-12-04T05:52:18.282Z,0
2016-12-04T05:53:18.917Z,0
2016-12-04T05:54:19.523Z,0
2016-12-04T05:55:20.155Z,0
2016-12-04T05:56:20.768Z,0
2016-12-04T05:57:21.389Z,0
2016-12-04T05:58:22.039Z,0
2016-12-04T05:59:22.657Z,0
2016-12-04T06:00:23.261Z,0
2016-12-04T06:01:23.868Z,0
2016-12-04T06:02:24.496Z,0
2016-12-04T06:03:25.117Z,0
2016-12-04T06:04:25.737Z,0
2016-12-04T06:05:26.359Z,0
2016-12-04T06:06:27.033Z,0
2016-12-04T06:07:27.660Z,0
2016-12-04T06:08:28.275Z,0
2016-12-04T06:09:28.894Z,0
2016-12-04T06:10:29.505Z,0
2016-12-04T06:11:30.139Z,0
2016-12-04T06:12:30.778Z,0
2016-12-04T06:13:31.379Z,0
2016-12-04T06:14:32.000Z,0
2016-12-04T06:15:32.607Z,0
2016-12-04T06:16:33.228Z,0
2016-12-04T06:17:33.823Z,0
2016-12-04T06:18:34.463Z,0
2016-12-04T06:19:35.075Z,0
2016-12-04T06:20:35.698Z,0
2016-12-04T06:21:36.312Z,0
2016-12-04T06:22:36.928Z,0
2016-12-04T06:23:37.562Z,0
2016-12-04T06:24:38.178Z,0
2016-12-04T06:25:38.790Z,0
2016-12-04T06:26:39.398Z,0
2016-12-04T06:27:40.012Z,0
2016-12-04T06:28:40.634Z,0
2016-12-04T06:29:41.238Z,0
2016-12-04T06:30:41.877Z,0
2016-12-04T06:31:42.510Z,0
2016-12-04T06:32:43.119Z,0
2016-12-04T06:33:43.729Z,0
2016-12-04T06:34:44.350Z,0
2016-12-04T06:35:44.950Z,0
2016-12-04T06:36:45.589Z,0
2016-12-04T06:37:46.223Z,0
2016-12-04T06:38:46.843Z,0
2016-12-04T06:39:47.448Z,0
2016-12-04T06:40:48.065Z,0
2016-12-04T06:41:48.698Z,0
2016-12-04T06:42:49.337Z,0
2016-12-04T06:43:49.981Z,0
2016-12-04T06:44:50.608Z,0
2016-12-04T06:45:51.240Z,0
2016-12-04T06:46:51.866Z,0
2016-12-04T06:47:52.481Z,0
2016-12-04T06:48:53.097Z,0
2016-12-04T06:49:53.712Z,0
2016-12-04T06:50:54.344Z,0
2016-12-04T06:51:54.963Z,0
2016-12-04T06:52:55.586Z,0
2016-12-04T06:53:56.206Z,0
2016-12-04T06:54:56.816Z,0
2016-12-04T06:55:57.439Z,0
2016-12-04T06:56:58.054Z,0
2016-12-04T06:57:58.672Z,0
2016-12-04T06:58:59.297Z,0
2016-12-04T06:59:59.918Z,0
2016-12-04T07:01:00.545Z,0
2016-12-04T07:02:01.169Z,0
2016-12-04T07:03:01.814Z,0
2016-12-04T07:04:02.445Z,0
2016-12-04T07:05:03.073Z,0
2016-12-04T07:06:03.694Z,0
2016-12-04T07:07:04.320Z,0
2016-12-04T07:08:04.934Z,0
2016-12-04T07:09:05.555Z,0
2016-12-04T07:10:06.172Z,0
2016-12-04T07:11:06.793Z,0
2016-12-04T07:12:07.436Z,0
2016-12-04T07:13:08.076Z,0
2016-12-04T07:14:08.696Z,5
2016-12-04T07:15:09.322Z,5
2016-12-04T07:16:09.946Z,5
2016-12-04T07:17:10.575Z,5
2016-12-04T07:18:11.209Z,5
2016-12-04T07:19:11.832Z,5
2016-12-04T07:20:12.440Z,5
2016-12-04T07:21:13.083Z,5
2016-12-04T07:22:13.701Z,5
2016-12-04T07:23:14.313Z,5
2016-12-04T07:24:14.934Z,5
2016-12-04T07:25:15.547Z,10
2016-12-04T07:26:16.175Z,10
2016-12-04T07:27:16.791Z,10
2016-12-04T07:28:17.412Z,10
2016-12-04T07:29:18.032Z,10
2016-12-04T07:30:18.655Z,10
2016-12-04T07:31:19.275Z,10
2016-12-04T07:32:19.880Z,10
2016-12-04T07:33:20.518Z,15
2016-12-04T07:34:21.154Z,15
2016-12-04T07:35:21.779Z,15
2016-12-04T07:36:22.386Z,15
2016-12-04T07:37:23.022Z,15
2016-12-04T07:38:23.630Z,15
2016-12-04T07:39:24.262Z,15
2016-12-04T07:40:24.873Z,15
2016-12-04T07:41:25.494Z,20
2016-12-04T07:42:26.122Z,20
2016-12-04T07:43:26.740Z,20
2016-12-04T07:44:27.354Z,20
2016-12-04T07:45:27.986Z,20
2016-12-04T07:46:28.607Z,20
2016-12-04T07:47:29.239Z,25
2016-12-04T07:48:29.870Z,25
2016-12-04T07:49:30.487Z,25
2016-12-04T07:50:31.108Z,25
2016-12-04T07:51:31.735Z,30
2016-12-04T07:52:32.378Z,30
2016-12-04T07:53:32.977Z,30
2016-12-04T07:54:33.606Z,30
2016-12-04T07:55:34.223Z,30
2016-12-04T07:56:34.858Z,35
2016-12-04T07:57:35.478Z,35
2016-12-04T07:58:36.093Z,35
2016-12-04T07:59:36.704Z,40
2016-12-04T08:00:37.308Z,40
2016-12-04T08:01:37.921Z,40
2016-12-04T08:02:38.566Z,40
2016-12-04T08:03:39.171Z,45
2016-12-04T08:04:39.785Z,45
2016-12-04T08:05:40.404Z,50
2016-12-04T08:06:41.039Z,50
2016-12-04T08:07:41.650Z,50
2016-12-04T08:08:42.268Z,50
2016-12-04T08:09:42.885Z,50
2016-12-04T08:10:43.514Z,50
2016-12-04T08:11:44.158Z,50
2016-12-04T08:12:44.785Z,50
2016-12-04T08:13:45.417Z,50
2016-12-04T08:14:46.042Z,55
2016-12-04T08:15:46.671Z,55
2016-12-04T08:16:47.310Z,55
2016-12-04T08:17:48.000Z,55
2016-12-04T08:18:48.620Z,60
2016-12-04T08:19:49.240Z,60
2016-12-04T08:20:49.868Z,60
2016-12-04T08:21:50.504Z,65
2016-12-04T08:22:51.134Z,65
2016-12-04T08:23:51.744Z,65
2016-12-04T08:24:52.365Z,65
2016-12-04T08:25:52.997Z,70
2016-12-04T08:26:53.643Z,70
2016-12-04T08:27:54.279Z,70
2016-12-04T08:28:54.897Z,70
2016-12-04T08:29:55.519Z,75
2016-12-04T08:30:56.151Z,75
2016-12-04T08:31:56.773Z,80
2016-12-04T08:32:57.394Z,85
2016-12-04T08:33:58.011Z,90
2016-12-04T08:34:58.620Z,90
2016-12-04T08:35:59.250Z,95
2016-12-04T08:36:59.864Z,100
2016-12-04T08:38:00.499Z,100
2016-12-04T08:39:01.133Z,100
2016-12-04T08:40:01.754Z,105
2016-12-04T08:41:02.364Z,105
2016-12-04T08:42:02.982Z,110
2016-12-04T08:43:03.601Z,110
2016-12-04T08:44:04.239Z,110
2016-12-04T08:45:04.856Z,105
2016-12-04T08:46:05.489Z,105
2016-12-04T08:47:06.108Z,105
2016-12-04T08:48:06.768Z,105
2016-12-04T08:49:07.385Z,105
2016-12-04T08:50:08.009Z,105
2016-12-04T08:51:08.662Z,110
2016-12-04T08:52:09.280Z,110
2016-12-04T08:53:09.912Z,115
2016-12-04T08:54:10.557Z,120
2016-12-04T08:55:11.161Z,120
2016-12-04T08:56:11.773Z,120
2016-12-04T08:57:12.391Z,125
2016-12-04T08:58:13.031Z,130
2016-12-04T08:59:13.660Z,130
2016-12-04T09:00:14.276Z,125
2016-12-04T09:01:14.902Z,120
2016-12-04T09:02:15.538Z,120
2016-12-04T09:03:16.138Z,125
2016-12-04T09:04:16.766Z,125
2016-12-04T09:05:17.386Z,130
2016-12-04T09:06:18.003Z,130
2016-12-04T09:07:18.612Z,135
2016-12-04T09:08:19.222Z,135
2016-12-04T09:09:19.865Z,130
2016-12-04T09:10:20.498Z,135
2016-12-04T09:11:21.146Z,135
2016-12-04T09:12:21.764Z,135
2016-12-04T09:13:22.393Z,140
2016-12-04T09:14:23.070Z,145
2016-12-04T09:15:23.690Z,145
2016-12-04T09:16:24.311Z,145
2016-12-04T09:17:24.948Z,145
2016-12-04T09:18:25.574Z,140
2016-12-04T09:19:26.192Z,140
2016-12-04T09:20:26.821Z,140
2016-12-04T09:21:27.495Z,140
2016-12-04T09:22:28.121Z,140
2016-12-04T09:23:28.746Z,135
2016-12-04T09:24:29.361Z,130
2016-12-04T09:25:29.994Z,125
2016-12-04T09:26:30.602Z,125
2016-12-04T09:27:31.223Z,130
2016-12-04T09:28:31.857Z,130
2016-12-04T09:29:32.486Z,135
2016-12-04T09:30:33.114Z,135
2016-12-04T09:31:33.713Z,135
2016-12-04T09:32:34.348Z,130
2016-12-04T09:33:34.965Z,120
2016-12-04T09:34:35.581Z,120
2016-12-04T09:35:36.215Z,115
2016-12-04T09:36:36.855Z,110
2016-12-04T09:37:37.495Z,110
2016-12-04T09:38:38.132Z,110
2016-12-04T09:39:38.747Z,110
2016-12-04T09:40:39.369Z,110
2016-12-04T09:41:40.058Z,110
2016-12-04T09:42:40.678Z,110
2016-12-04T09:43:41.308Z,110
2016-12-04T09:44:41.930Z,115
2016-12-04T09:45:42.552Z,120
2016-12-04T09:46:43.173Z,125
2016-12-04T09:47:43.837Z,130
2016-12-04T09:48:44.454Z,130
2016-12-04T09:49:45.145Z,130
2016-12-04T09:50:45.743Z,135
2016-12-04T09:51:46.383Z,140
2016-12-04T09:52:47.005Z,145
2016-12-04T09:53:47.672Z,150
2016-12-04T09:54:48.286Z,150
2016-12-04T09:55:48.906Z,155
2016-12-04T09:56:49.525Z,155
2016-12-04T09:57:50.148Z,155
2016-12-04T09:58:50.770Z,155
2016-12-04T09:59:51.395Z,155
2016-12-04T10:00:52.014Z,155
2016-12-04T10:01:52.635Z,160
2016-12-04T10:02:53.272Z,160
2016-12-04T10:03:53.901Z,160
2016-12-04T10:04:54.522Z,165
2016-12-04T10:05:55.146Z,165
2016-12-04T10:06:55.773Z,165
2016-12-04T10:07:56.395Z,160
2016-12-04T10:08:57.051Z,160
2016-12-04T10:09:57.752Z,160
2016-12-04T10:10:58.358Z,155
2016-12-04T10:11:58.985Z,155
2016-12-04T10:12:59.615Z,155
2016-12-04T10:14:00.282Z,155
2016-12-04T10:15:00.934Z,155
2016-12-04T10:16:01.586Z,150
2016-12-04T10:17:02.366Z,160
2016-12-04T10:18:03.031Z,155
2016-12-04T10:19:03.666Z,160
2016-12-04T10:20:04.301Z,165
2016-12-04T10:21:04.940Z,165
2016-12-04T10:22:05.571Z,165
2016-12-04T10:23:06.216Z,165
2016-12-04T10:24:06.870Z,165
2016-12-04T10:25:07.519Z,165
2016-12-04T10:26:08.148Z,160
2016-12-04T10:27:08.781Z,155
2016-12-04T10:28:09.413Z,155
2016-12-04T10:29:10.060Z,155
2016-12-04T10:30:10.707Z,150
2016-12-04T10:31:11.331Z,150
2016-12-04T10:32:11.947Z,145
2016-12-04T10:33:12.583Z,140
2016-12-04T10:34:13.211Z,140
2016-12-04T10:35:13.845Z,135
2016-12-04T10:36:14.469Z,135
2016-12-04T10:37:15.095Z,135
2016-12-04T10:38:15.718Z,135
2016-12-04T10:39:16.355Z,135
2016-12-04T10:40:17.098Z,130
2016-12-04T10:41:17.783Z,130
2016-12-04T10:42:18.442Z,120
2016-12-04T10:43:19.075Z,120
2016-12-04T10:44:19.719Z,115
2016-12-04T10:45:20.343Z,115
2016-12-04T10:46:21.099Z,115
2016-12-04T10:47:21.655Z,115
2016-12-04T10:48:22.332Z,115
2016-12-04T10:49:23.033Z,110
2016-12-04T10:50:24.103Z,110
2016-12-04T10:51:24.732Z,110
2016-12-04T10:52:25.384Z,110
2016-12-04T10:53:26.016Z,110
2016-12-04T10:54:26.656Z,110
2016-12-04T10:55:27.305Z,115
2016-12-04T10:56:27.938Z,110
2016-12-04T10:57:28.556Z,115
2016-12-04T10:58:29.199Z,115
2016-12-04T10:59:29.842Z,120
2016-12-04T11:00:30.481Z,120
2016-12-04T11:01:31.135Z,125
2016-12-04T11:02:31.763Z,125
2016-12-04T11:03:32.390Z,125
2016-12-04T11:04:33.019Z,130
2016-12-04T11:05:34.612Z,130
2016-12-04T11:06:35.229Z,130
2016-12-04T11:07:35.853Z,125
2016-12-04T11:08:36.504Z,125
2016-12-04T11:09:37.146Z,125
2016-12-04T11:10:37.794Z,120
2016-12-04T11:11:38.430Z,120
2016-12-04T11:12:39.162Z,120
2016-12-04T11:13:39.803Z,120
2016-12-04T11:14:40.430Z,120
2016-12-04T11:15:41.109Z,120
2016-12-04T11:16:41.782Z,115
2016-12-04T11:17:42.402Z,120
2016-12-04T11:18:43.028Z,125
2016-12-04T11:19:43.672Z,125
2016-12-04T11:20:44.312Z,130
2016-12-04T11:21:44.971Z,130
2016-12-04T11:22:45.604Z,135
2016-12-04T11:23:46.245Z,135
2016-12-04T11:24:46.890Z,135
2016-12-04T11:25:47.531Z,135
2016-12-04T11:26:48.154Z,135
2016-12-04T11:27:48.800Z,135
2016-12-04T11:28:49.422Z,135
2016-12-04T11:29:50.070Z,130
2016-12-04T11:30:50.711Z,130
2016-12-04T11:31:51.417Z,130
2016-12-04T11:32:52.071Z,130
2016-12-04T11:33:52.698Z,130
2016-12-04T11:34:53.318Z,130
2016-12-04T11:35:53.955Z,130
2016-12-04T11:36:54.583Z,135
2016-12-04T11:37:55.243Z,135
2016-12-04T11:38:55.856Z,135
2016-12-04T11:39:56.498Z,135
2016-12-04T11:40:57.136Z,135
2016-12-04T11:41:57.765Z,130
2016-12-04T11:42:58.391Z,130
2016-12-04T11:43:59.027Z,130
2016-12-04T11:44:59.648Z,130
2016-12-04T11:46:00.271Z,130
2016-12-04T11:47:00.908Z,135
2016-12-04T11:48:01.543Z,140
2016-12-04T11:49:02.286Z,140
2016-12-04T11:50:02.908Z,140
2016-12-04T11:51:03.537Z,140
2016-12-04T11:52:04.165Z,135
2016-12-04T11:53:04.814Z,135
2016-12-04T11:54:05.455Z,135
2016-12-04T11:55:06.088Z,135
2016-12-04T11:56:06.736Z,135
2016-12-04T11:57:07.384Z,135
2016-12-04T11:58:08.013Z,130
2016-12-04T11:59:08.674Z,130
2016-12-04T12:00:09.338Z,125
2016-12-04T12:01:09.972Z,130
2016-12-04T12:02:10.593Z,130
2016-12-04T12:03:11.230Z,135
2016-12-04T12:04:11.862Z,135
2016-12-04T12:05:12.485Z,135
2016-12-04T12:06:13.117Z,135
2016-12-04T12:07:13.754Z,135
2016-12-04T12:08:14.402Z,135
2016-12-04T12:09:15.025Z,130
2016-12-04T12:10:15.678Z,130
2016-12-04T12:11:16.328Z,130
2016-12-04T12:12:16.965Z,130
2016-12-04T12:13:17.609Z,120
2016-12-04T12:14:18.261Z,120
2016-12-04T12:15:18.896Z,120
2016-12-04T12:16:19.513Z,125
2016-12-04T12:17:20.142Z,125
2016-12-04T12:18:20.781Z,125
2016-12-04T12:19:21.425Z,120
2016-12-04T12:20:22.100Z,120
2016-12-04T12:21:22.736Z,115
2016-12-04T12:22:23.366Z,115
2016-12-04T12:23:24.011Z,115
2016-12-04T12:24:24.640Z,110
2016-12-04T12:25:25.296Z,110
2016-12-04T12:26:25.954Z,110
2016-12-04T12:27:26.589Z,110
2016-12-04T12:28:27.222Z,110
2016-12-04T12:29:27.859Z,110
2016-12-04T12:30:28.502Z,110
2016-12-04T12:31:29.134Z,110
2016-12-04T12:32:29.751Z,110
2016-12-04T12:33:30.441Z,110
2016-12-04T12:34:31.075Z,110
2016-12-04T12:35:31.722Z,110
2016-12-04T12:36:32.349Z,110
2016-12-04T12:37:33.010Z,110
2016-12-04T12:38:33.654Z,115
2016-12-04T12:39:34.303Z,115
2016-12-04T12:40:34.962Z,115
2016-12-04T12:41:35.626Z,115
2016-12-04T12:42:36.286Z,120
2016-12-04T12:43:36.952Z,115
2016-12-04T12:44:37.618Z,115
2016-12-04T12:45:38.288Z,115
2016-12-04T12:46:38.919Z,115
2016-12-04T12:47:39.560Z,115
2016-12-04T12:48:40.206Z,115
2016-12-04T12:49:40.864Z,120
2016-12-04T12:50:41.481Z,115
2016-12-04T12:51:42.177Z,115
2016-12-04T12:52:42.837Z,115
2016-12-04T12:53:43.538Z,115
2016-12-04T12:54:44.179Z,115
2016-12-04T12:55:44.808Z,115
2016-12-04T12:56:45.464Z,110
2016-12-04T12:57:46.101Z,110
2016-12-04T12:58:46.763Z,110
2016-12-04T12:59:47.401Z,110
2016-12-04T13:00:48.043Z,115
2016-12-04T13:01:48.715Z,110
2016-12-04T13:02:49.367Z,105
2016-12-04T13:03:50.046Z,105
2016-12-04T13:04:50.674Z,105
2016-12-04T13:05:51.315Z,110
2016-12-04T13:06:51.993Z,110
2016-12-04T13:07:52.684Z,110
2016-12-04T13:08:53.342Z,105
2016-12-04T13:09:54.013Z,105
2016-12-04T13:10:54.679Z,100
2016-12-04T13:11:55.350Z,100
2016-12-04T13:12:56.015Z,100
2016-12-04T13:13:56.674Z,100
2016-12-04T13:14:57.367Z,95
2016-12-04T13:15:58.005Z,95
2016-12-04T13:16:58.658Z,95
2016-12-04T13:17:59.294Z,95
2016-12-04T13:18:59.954Z,95
2016-12-04T13:20:00.602Z,95
2016-12-04T13:21:01.245Z,95
2016-12-04T13:22:01.906Z,95
2016-12-04T13:23:02.548Z,90
2016-12-04T13:24:03.197Z,90
2016-12-04T13:25:03.834Z,90
2016-12-04T13:26:04.495Z,90
2016-12-04T13:27:05.170Z,90
2016-12-04T13:28:05.804Z,90
2016-12-04T13:29:06.452Z,90
2016-12-04T13:30:07.093Z,90
2016-12-04T13:31:07.756Z,85
2016-12-04T13:32:08.422Z,85
2016-12-04T13:33:09.182Z,85
2016-12-04T13:34:09.841Z,80
2016-12-04T13:35:10.542Z,80
2016-12-04T13:36:11.204Z,80
2016-12-04T13:37:11.838Z,80
2016-12-04T13:38:12.517Z,80
2016-12-04T13:39:13.186Z,75
2016-12-04T13:40:13.835Z,75
2016-12-04T13:41:14.483Z,75
2016-12-04T13:42:15.168Z,75
2016-12-04T13:43:15.834Z,70
2016-12-04T13:44:16.479Z,70
2016-12-04T13:45:17.112Z,70
2016-12-04T13:46:17.746Z,70
2016-12-04T13:47:18.370Z,70
2016-12-04T13:48:19.025Z,65
2016-12-04T13:49:19.672Z,65
2016-12-04T13:50:20.328Z,65
2016-12-04T13:51:20.953Z,65
2016-12-04T13:52:21.631Z,60
2016-12-04T13:53:22.258Z,60
2016-12-04T13:54:22.884Z,60
2016-12-04T13:55:23.513Z,60
2016-12-04T13:56:24.155Z,60
2016-12-04T13:57:24.798Z,60
2016-12-04T13:58:25.447Z,55
2016-12-04T13:59:26.091Z,55
2016-12-04T14:00:26.810Z,55
2016-12-04T14:01:27.479Z,55
2016-12-04T14:02:28.108Z,55
2016-12-04T14:03:28.779Z,50
2016-12-04T14:04:29.428Z,50
2016-12-04T14:05:30.059Z,50
2016-12-04T14:06:30.712Z,50
2016-12-04T14:07:31.370Z,45
2016-12-04T14:08:32.020Z,45
2016-12-04T14:09:32.651Z,45
2016-12-04T14:10:33.291Z,45
2016-12-04T14:11:33.936Z,45
2016-12-04T14:12:34.618Z,45
2016-12-04T14:13:35.253Z,45
2016-12-04T14:14:35.900Z,45
2016-12-04T14:15:36.581Z,40
2016-12-04T14:16:37.229Z,40
2016-12-04T14:17:37.887Z,40
2016-12-04T14:18:38.547Z,40
2016-12-04T14:19:39.220Z,35
2016-12-04T14:20:39.843Z,35
2016-12-04T14:21:40.528Z,35
2016-12-04T14:22:41.189Z,35
2016-12-04T14:23:41.870Z,35
2016-12-04T14:24:42.500Z,35
2016-12-04T14:25:43.147Z,35
2016-12-04T14:26:43.775Z,30
2016-12-04T14:27:44.431Z,30
2016-12-04T14:28:45.071Z,30
2016-12-04T14:29:45.720Z,30
2016-12-04T14:30:46.373Z,30